Time;durP1;ratioP1;P1;durP2;ratioP2;P2;SDS_P1;SDS_P2;PMS_P1;PMS_P2;Temp;Humidity;BMP_temperature;BMP_pressure;BME280_temperature;BME280_humidity;BME280_pressure;Samples;Min_cycle;Max_cycle;Signal;HPM_P1;HPM_P2
2023/07/06 00:00:47;;;;;;;65.28;4.45;;;;;;;25.03;59.55;99451.66;7310161;19;128916;-37
2023/07/06 00:03:14;;;;;;;35.85;3.05;;;;;;;25.00;59.46;99445.91;7310869;19;128944;-35
2023/07/06 00:05:49;;;;;;;31.50;2.70;;;;;;;25.05;59.96;99454.13;7308353;19;129531;-34
2023/07/06 00:08:18;;;;;;;48.60;3.90;;;;;;;25.03;59.59;99450.81;7309361;19;129525;-37
2023/07/06 00:10:49;;;;;;;55.30;3.90;;;;;;;25.03;59.95;99450.81;7312274;19;129035;-35
2023/07/06 00:13:16;;;;;;;35.75;3.05;;;;;;;25.01;59.92;99452.78;7318213;19;129073;-34
2023/07/06 00:15:42;;;;;;;34.85;2.80;;;;;;;25.03;60.11;99456.09;7316865;19;129589;-32
2023/07/06 00:18:08;;;;;;;28.90;2.53;;;;;;;25.03;59.92;99456.09;7316058;19;129235;-34
2023/07/06 00:20:38;;;;;;;49.28;3.72;;;;;;;25.03;59.51;99456.91;7316824;19;129671;-31
2023/07/06 00:23:08;;;;;;;35.17;3.05;;;;;;;25.04;60.11;99457.75;7317828;19;129053;-33
2023/07/06 00:25:34;;;;;;;38.97;3.17;;;;;;;25.03;60.25;99462.19;7316738;19;129675;-35
2023/07/06 00:28:02;;;;;;;34.38;2.80;;;;;;;25.04;59.80;99463.00;7317231;19;130796;-36
2023/07/06 00:30:53;;;;;;;36.88;3.20;;;;;;;25.03;59.67;99462.19;7314549;19;129156;-34
2023/07/06 00:33:19;;;;;;;52.70;3.75;;;;;;;25.04;59.64;99455.13;7316945;19;128812;-30
2023/07/06 00:35:46;;;;;;;42.28;3.40;;;;;;;25.04;59.65;99455.13;7316009;19;128980;-43
2023/07/06 00:38:14;;;;;;;15.30;2.03;;;;;;;25.04;59.64;99457.75;7315314;19;129217;-34
2023/07/06 00:40:59;;;;;;;32.13;2.47;;;;;;;25.07;59.76;99457.41;7314627;19;129600;-38
2023/07/06 00:43:28;;;;;;;37.88;3.00;;;;;;;25.03;59.65;99456.91;7315757;19;129171;-35
2023/07/06 00:45:58;;;;;;;65.00;4.53;;;;;;;25.04;59.47;99457.75;7315554;19;129054;-36
2023/07/06 00:48:32;;;;;;;46.58;3.50;;;;;;;25.04;60.02;99455.91;7315729;19;131033;-40
2023/07/06 00:51:04;;;;;;;53.88;3.80;;;;;;;25.05;59.58;99459.38;7312303;19;129564;-34
2023/07/06 00:53:34;;;;;;;36.47;3.25;;;;;;;25.04;59.98;99457.75;7316054;19;129046;-34
2023/07/06 00:56:01;;;;;;;44.60;3.42;;;;;;;25.04;59.97;99457.75;7316154;19;129379;-35
2023/07/06 00:58:36;;;;;;;45.25;3.42;;;;;;;25.04;60.28;99447.22;7315160;19;129241;-31
2023/07/06 01:01:05;;;;;;;59.85;3.97;;;;;;;25.03;60.25;99451.66;7315713;19;128889;-39
2023/07/06 01:03:34;;;;;;;36.10;2.90;;;;;;;24.95;59.89;99432.41;7315542;19;129555;-31
2023/07/06 01:06:03;;;;;;;36.38;2.95;;;;;;;25.04;59.56;99447.22;7315688;19;129615;-31
2023/07/06 01:08:30;;;;;;;34.20;2.70;;;;;;;25.03;59.84;99442.94;7314489;19;129671;-33
2023/07/06 01:10:59;;;;;;;55.17;3.80;;;;;;;25.02;60.19;99454.44;7313834;19;129154;-33
2023/07/06 01:13:25;;;;;;;46.70;3.47;;;;;;;25.04;59.50;99452.47;7316035;19;128869;-37
2023/07/06 01:16:12;;;;;;;34.75;2.97;;;;;;;25.07;59.87;99454.78;7315734;19;130059;-34
2023/07/06 01:18:54;;;;;;;41.97;3.25;;;;;;;25.07;60.05;99462.66;7313704;19;129663;-36
2023/07/06 01:21:42;;;;;;;32.47;2.85;;;;;;;25.07;60.03;99457.41;7313537;19;129435;-33
2023/07/06 01:24:37;;;;;;;32.38;2.83;;;;;;;25.08;60.33;99459.03;7314557;19;128955;-31
2023/07/06 01:27:33;;;;;;;30.92;2.72;;;;;;;25.03;59.59;99454.28;7315342;19;129601;-42
2023/07/06 01:30:01;;;;;;;42.88;2.90;;;;;;;25.04;60.09;99463.00;7312584;19;129238;-31
2023/07/06 01:32:32;;;;;;;47.13;3.85;;;;;;;25.01;60.37;99460.69;7314994;19;128954;-37
2023/07/06 01:35:29;;;;;;;35.30;3.08;;;;;;;25.08;59.68;99469.56;7314121;19;129308;-38
2023/07/06 01:37:55;;;;;;;32.00;2.72;;;;;;;25.03;59.89;99469.25;7313030;19;132220;-32
2023/07/06 01:40:20;;;;;;;43.33;3.20;;;;;;;25.04;60.08;99465.63;7312460;19;129356;-35
2023/07/06 01:42:46;;;;;;;51.40;3.67;;;;;;;25.05;59.93;99464.63;7314607;19;129017;-33
2023/07/06 01:45:17;;;;;;;29.13;2.53;;;;;;;25.05;59.98;99469.91;7314365;19;128899;-38
2023/07/06 01:47:46;;;;;;;23.63;2.25;;;;;;;25.04;60.08;99468.28;7314402;19;129518;-32
2023/07/06 01:50:14;;;;;;;46.33;3.30;;;;;;;25.01;59.59;99471.19;7309669;19;132776;-40
2023/07/06 01:52:45;;;;;;;28.20;2.70;;;;;;;25.03;59.91;99472.69;7313705;19;129343;-39
2023/07/06 01:55:14;;;;;;;37.28;2.85;;;;;;;25.04;59.87;99476.16;7314851;19;128747;-29
2023/07/06 01:57:46;;;;;;;24.25;2.63;;;;;;;25.05;60.06;99477.78;7313734;19;129090;-33
2023/07/06 02:00:14;;;;;;;24.63;2.17;;;;;;;24.94;60.03;99455.25;7312066;19;129117;-32
2023/07/06 02:02:44;;;;;;;33.42;2.78;;;;;;;25.04;59.83;99479.59;7314570;19;129168;-34
2023/07/06 02:05:12;;;;;;;43.17;3.17;;;;;;;25.03;59.95;99477.13;7314105;19;128787;-33
2023/07/06 02:07:40;;;;;;;35.80;2.97;;;;;;;24.93;59.78;99464.16;7313708;19;129136;-37
2023/07/06 02:10:06;;;;;;;33.75;2.95;;;;;;;24.99;59.75;99475.84;7311360;19;129956;-34
2023/07/06 02:12:31;;;;;;;38.93;3.00;;;;;;;25.05;60.14;99488.31;7314127;19;129495;-31
2023/07/06 02:14:57;;;;;;;44.97;3.13;;;;;;;25.06;59.62;99484.69;7313511;19;128762;-35
2023/07/06 02:17:22;;;;;;;24.57;2.43;;;;;;;25.05;60.18;99488.31;7313421;19;129021;-37
2023/07/06 02:19:49;;;;;;;27.80;2.43;;;;;;;25.06;59.95;99484.69;7310712;19;129872;-35
2023/07/06 02:22:15;;;;;;;45.45;3.50;;;;;;;25.04;60.27;99486.69;7313693;19;129053;-38
2023/07/06 02:24:41;;;;;;;56.83;3.95;;;;;;;25.05;59.93;99480.44;7311852;19;129116;-34
2023/07/06 02:27:09;;;;;;;55.57;3.93;;;;;;;25.03;60.33;99487.66;7311802;19;133812;-30
2023/07/06 02:29:36;;;;;;;33.40;2.78;;;;;;;25.04;60.24;99489.31;7309371;19;132221;-37
2023/07/06 02:32:02;;;;;;;46.75;3.33;;;;;;;25.04;60.11;99499.84;7311052;19;128938;-32
2023/07/06 02:34:28;;;;;;;44.50;3.30;;;;;;;25.05;59.58;99506.72;7311129;19;130582;-34
2023/07/06 02:36:55;;;;;;;36.33;3.00;;;;;;;25.02;60.41;99507.06;7314257;19;129778;-32
2023/07/06 02:39:24;;;;;;;40.30;2.97;;;;;;;25.03;59.58;99508.69;7311985;19;129431;-33
2023/07/06 02:41:52;;;;;;;42.28;3.17;;;;;;;25.04;59.96;99510.34;7312683;19;129269;-38
2023/07/06 02:44:19;;;;;;;54.08;3.83;;;;;;;25.04;60.18;99508.53;7313150;19;129610;-38
2023/07/06 02:46:48;;;;;;;34.05;2.78;;;;;;;25.03;59.71;99498.16;7313363;19;130779;-33
2023/07/06 02:49:14;;;;;;;45.75;3.58;;;;;;;25.04;59.78;99505.09;7310414;19;129028;-36
2023/07/06 02:51:40;;;;;;;36.43;2.90;;;;;;;25.03;60.05;99499.00;7310284;19;128950;-36
2023/07/06 02:54:06;;;;;;;47.37;3.30;;;;;;;25.04;60.38;99502.47;7311008;19;129134;-33
2023/07/06 02:56:32;;;;;;;31.73;2.50;;;;;;;25.04;60.40;99505.09;7313459;19;129213;-34
2023/07/06 02:58:57;;;;;;;36.23;2.73;;;;;;;25.04;60.30;99505.09;7311118;19;129864;-31
2023/07/06 03:01:23;;;;;;;39.53;2.87;;;;;;;25.02;60.05;99496.53;7313013;19;131060;-38
2023/07/06 03:03:51;;;;;;;45.23;3.17;;;;;;;25.05;59.97;99502.31;7311111;19;129378;-36
2023/07/06 03:06:17;;;;;;;39.00;2.83;;;;;;;25.04;60.28;99505.09;7310218;19;131825;-32
2023/07/06 03:08:43;;;;;;;35.33;3.00;;;;;;;25.05;60.37;99512.00;7310629;19;129360;-36
2023/07/06 03:11:10;;;;;;;21.87;2.30;;;;;;;24.97;60.41;99493.56;7310403;19;129474;-33
2023/07/06 03:13:36;;;;;;;42.42;3.03;;;;;;;25.04;60.33;99511.16;7312977;19;129013;-35
2023/07/06 03:16:03;;;;;;;43.43;3.10;;;;;;;25.01;59.65;99510.66;7313209;19;129275;-33
2023/07/06 03:18:28;;;;;;;39.70;3.22;;;;;;;25.05;60.38;99512.00;7311800;19;129504;-37
2023/07/06 03:20:55;;;;;;;19.73;2.10;;;;;;;24.96;60.51;99507.69;7312478;19;129418;-33
2023/07/06 03:23:21;;;;;;;48.28;3.38;;;;;;;25.04;60.17;99520.88;7311823;19;129358;-40
2023/07/06 03:25:50;;;;;;;17.05;2.03;;;;;;;25.05;60.56;99522.50;7310204;19;132222;-39
2023/07/06 03:28:16;;;;;;;37.13;2.85;;;;;;;25.03;59.93;99524.47;7310004;19;129396;-34
2023/07/06 03:30:43;;;;;;;38.73;2.80;;;;;;;25.06;59.84;99524.16;7310418;19;129345;-33
2023/07/06 03:33:09;;;;;;;;;;;;;;;25.14;59.98;99532.06;7309824;19;130138;-32
2023/07/06 03:35:34;;;;;;;25.92;2.05;;;;;;;25.05;60.34;99539.13;7312169;19;130207;-36
2023/07/06 03:38:00;;;;;;;26.10;2.40;;;;;;;25.04;59.86;99542.72;7311011;19;130566;-31
2023/07/06 03:40:30;;;;;;;47.77;3.47;;;;;;;25.05;60.38;99548.81;7308605;19;129494;-36
2023/07/06 03:42:56;;;;;;;57.83;3.92;;;;;;;25.04;60.06;99549.81;7310095;19;129691;-34
2023/07/06 03:45:22;;;;;;;21.23;1.97;;;;;;;24.99;60.48;99544.22;7313175;19;129140;-34
2023/07/06 03:47:50;;;;;;;45.85;3.30;;;;;;;25.04;60.04;99557.72;7317111;19;132836;-35
2023/07/06 03:50:17;;;;;;;41.05;2.90;;;;;;;24.94;60.58;99541.25;7316375;19;129223;-39
2023/07/06 03:52:44;;;;;;;30.83;2.75;;;;;;;24.95;59.99;99542.88;7318813;19;128799;-34
2023/07/06 03:55:21;;;;;;;;;;;;;;;25.05;60.20;99549.66;7317065;19;130725;-36
2023/07/06 03:57:49;;;;;;;41.25;3.13;;;;;;;25.04;60.48;99557.72;7315350;19;130514;-34
2023/07/06 04:00:24;;;;;;;31.25;2.38;;;;;;;24.96;60.48;99544.53;7315394;19;130568;-33
2023/07/06 04:02:53;;;;;;;42.95;3.28;;;;;;;25.04;60.28;99570.88;7317341;19;128818;-40
2023/07/06 04:05:22;;;;;;;35.47;2.75;;;;;;;25.02;60.07;99573.66;7316931;19;130326;-32
2023/07/06 04:07:52;;;;;;;38.20;3.08;;;;;;;25.03;60.52;99571.81;7318890;19;129171;-31
2023/07/06 04:10:21;;;;;;;42.40;3.40;;;;;;;25.00;60.21;99572.16;7312194;19;130869;-33
2023/07/06 04:12:48;;;;;;;50.58;3.83;;;;;;;24.98;59.91;99561.81;7314222;19;129504;-37
2023/07/06 04:15:15;;;;;;;;;;;;;;;25.12;59.81;99576.13;7314859;19;132222;-31
2023/07/06 04:17:40;;;;;;;45.33;3.33;;;;;;;25.05;60.23;99577.75;7317576;19;130331;-37
2023/07/06 04:20:18;;;;;;;27.33;2.40;;;;;;;25.03;60.48;99566.56;7315380;19;129756;-33
2023/07/06 04:22:47;;;;;;;44.35;3.28;;;;;;;25.03;60.19;99571.81;7316301;19;129536;-30
2023/07/06 04:25:15;;;;;;;45.95;3.28;;;;;;;25.03;60.09;99572.66;7316915;19;129783;-31
2023/07/06 04:27:42;;;;;;;45.13;2.95;;;;;;;24.93;60.25;99564.09;7316810;19;129787;-31
2023/07/06 04:30:10;;;;;;;39.92;3.03;;;;;;;25.02;60.26;99570.19;7312909;19;129046;-31
2023/07/06 04:32:36;;;;;;;32.22;2.63;;;;;;;25.01;59.84;99574.63;7314633;19;129350;-32
2023/07/06 04:35:02;;;;;;;41.53;3.17;;;;;;;25.02;60.01;99576.28;7315980;19;130181;-33
2023/07/06 04:37:28;;;;;;;42.85;3.20;;;;;;;25.03;60.30;99574.47;7316036;19;130473;-39
2023/07/06 04:39:53;;;;;;;43.37;2.97;;;;;;;25.03;59.99;99577.09;7314632;19;130268;-36
2023/07/06 04:42:19;;;;;;;30.47;2.47;;;;;;;25.00;59.91;99577.41;7315369;19;128755;-35
2023/07/06 04:44:45;;;;;;;15.40;1.73;;;;;;;25.04;59.80;99581.38;7313168;19;130434;-33
2023/07/06 04:47:11;;;;;;;68.07;4.57;;;;;;;25.03;60.09;99577.91;7314015;19;129191;-40
2023/07/06 04:49:37;;;;;;;16.07;1.90;;;;;;;25.03;60.16;99574.47;7313967;19;130253;-31
2023/07/06 04:52:03;;;;;;;29.88;2.22;;;;;;;25.02;60.56;99581.56;7309550;19;129634;-31
2023/07/06 04:54:30;;;;;;;41.33;3.40;;;;;;;24.94;59.85;99562.28;7312268;19;130862;-32
2023/07/06 04:56:56;;;;;;;46.75;3.30;;;;;;;25.02;60.19;99580.72;7313577;19;131304;-34
2023/07/06 04:59:21;;;;;;;87.43;6.00;;;;;;;25.02;60.01;99581.56;7308801;19;129626;-37
2023/07/06 05:01:47;;;;;;;46.47;3.67;;;;;;;25.04;60.36;99586.66;7312926;19;129775;-32
2023/07/06 05:04:12;;;;;;;29.43;2.60;;;;;;;25.03;60.49;99579.72;7314459;19;129583;-32
2023/07/06 05:06:38;;;;;;;46.30;3.03;;;;;;;25.03;60.40;99577.09;7315736;19;128933;-35
2023/07/06 05:09:03;;;;;;;44.77;3.20;;;;;;;25.00;59.86;99577.41;7312975;19;129541;-32
2023/07/06 05:11:30;;;;;;;49.97;3.67;;;;;;;25.03;60.17;99584.97;7312727;19;129180;-33
2023/07/06 05:13:56;;;;;;;43.65;3.38;;;;;;;24.93;60.43;99571.16;7312891;19;131043;-39
2023/07/06 05:16:22;;;;;;;17.03;1.90;;;;;;;25.02;60.24;99588.59;7314542;19;129490;-34
2023/07/06 05:18:48;;;;;;;42.47;3.10;;;;;;;24.92;60.49;99570.34;7313836;19;129327;-39
2023/07/06 05:21:14;;;;;;;34.15;2.70;;;;;;;24.95;59.82;99580.53;7314028;19;129120;-33
2023/07/06 05:23:40;;;;;;;60.65;3.97;;;;;;;25.02;60.13;99592.06;7311368;19;134409;-33
2023/07/06 05:26:06;;;;;;;69.50;4.60;;;;;;;25.03;59.99;99587.59;7311099;19;130665;-36
2023/07/06 05:28:32;;;;;;;32.90;2.47;;;;;;;24.91;60.54;99576.56;7313630;19;129325;-33
2023/07/06 05:30:57;;;;;;;27.93;2.27;;;;;;;25.01;60.24;99594.84;7312712;19;129670;-32
2023/07/06 05:33:23;;;;;;;110.97;7.43;;;;;;;24.93;60.45;99571.16;7306570;19;130338;-40
2023/07/06 05:35:49;;;;;;;52.57;3.53;;;;;;;24.96;60.52;99584.81;7311187;19;133970;-39
2023/07/06 05:38:14;;;;;;;37.37;2.70;;;;;;;25.01;59.94;99589.56;7313688;19;129072;-37
2023/07/06 05:40:41;;;;;;;23.23;2.13;;;;;;;25.01;60.25;99592.22;7314907;19;129188;-39
2023/07/06 05:43:07;;;;;;;21.65;1.90;;;;;;;25.01;60.42;99597.47;7313034;19;129245;-37
2023/07/06 05:45:32;;;;;;;28.58;2.22;;;;;;;25.00;60.10;99593.19;7314770;19;130837;-37
2023/07/06 05:47:58;;;;;;;33.17;2.60;;;;;;;24.93;60.22;99593.03;7314105;19;129493;-34
2023/07/06 05:50:23;;;;;;;23.30;2.00;;;;;;;25.02;60.45;99607.84;7310043;19;128877;-34
2023/07/06 05:52:49;;;;;;;62.57;4.13;;;;;;;25.02;60.15;99601.75;7314007;19;130148;-36
2023/07/06 05:55:15;;;;;;;43.50;2.87;;;;;;;25.02;60.67;99607.84;7313711;19;129137;-39
2023/07/06 05:57:41;;;;;;;31.30;2.43;;;;;;;25.00;60.11;99606.34;7312162;19;129047;-36
2023/07/06 06:00:09;;;;;;;31.37;2.50;;;;;;;25.02;59.94;99612.28;7311760;19;129730;-37
2023/07/06 06:02:37;;;;;;;52.15;3.58;;;;;;;25.02;59.84;99607.03;7311981;19;130131;-39
2023/07/06 06:05:02;;;;;;;41.53;2.92;;;;;;;25.01;60.17;99611.44;7310100;19;133239;-36
2023/07/06 06:07:31;;;;;;;37.73;2.80;;;;;;;25.02;60.57;99614.91;7310956;19;128779;-39
2023/07/06 06:09:57;;;;;;;39.20;2.83;;;;;;;25.01;59.93;99610.63;7310593;19;129158;-40
2023/07/06 06:12:23;;;;;;;45.40;3.08;;;;;;;25.00;60.17;99615.06;7309835;19;129654;-37
2023/07/06 06:14:50;;;;;;;32.00;2.67;;;;;;;25.01;60.55;99611.44;7313282;19;129376;-35
2023/07/06 06:17:18;;;;;;;29.20;2.28;;;;;;;25.01;59.97;99610.63;7313455;19;129800;-35
2023/07/06 06:19:45;;;;;;;33.38;2.53;;;;;;;25.01;60.15;99618.50;7311201;19;129222;-37
2023/07/06 06:22:12;;;;;;;30.02;2.17;;;;;;;25.01;60.46;99615.88;7312161;19;129393;-36
2023/07/06 06:24:37;;;;;;;45.95;3.35;;;;;;;25.01;60.57;99614.09;7313308;19;129489;-37
2023/07/06 06:27:04;;;;;;;53.43;3.97;;;;;;;25.01;60.42;99621.97;7310531;19;129119;-36
2023/07/06 06:29:30;;;;;;;36.33;2.83;;;;;;;25.02;59.89;99623.63;7309174;19;129037;-37
2023/07/06 06:31:55;;;;;;;37.13;2.93;;;;;;;25.01;59.86;99626.41;7311077;19;129898;-34
2023/07/06 06:34:22;;;;;;;31.30;2.53;;;;;;;25.02;59.81;99622.81;7313106;19;129569;-39
2023/07/06 06:36:48;;;;;;;35.85;2.85;;;;;;;25.02;60.23;99628.06;7310727;19;130686;-33
2023/07/06 06:39:14;;;;;;;33.07;2.60;;;;;;;25.02;59.88;99628.91;7310109;19;129058;-38
2023/07/06 06:41:40;;;;;;;45.63;3.30;;;;;;;25.02;59.91;99622.81;7311619;19;129039;-37
2023/07/06 06:44:06;;;;;;;42.33;2.95;;;;;;;24.99;59.75;99628.41;7310662;19;130848;-38
2023/07/06 06:46:32;;;;;;;37.47;2.77;;;;;;;25.02;60.18;99628.06;7312216;19;129155;-36
2023/07/06 06:48:57;;;;;;;42.70;3.03;;;;;;;25.02;60.04;99635.97;7310294;19;129176;-37
2023/07/06 06:51:24;;;;;;;43.43;3.17;;;;;;;25.01;59.79;99631.66;7311125;19;129820;-35
2023/07/06 06:53:49;;;;;;;35.97;2.67;;;;;;;25.01;60.19;99629.88;7311119;19;131167;-39
2023/07/06 06:56:15;;;;;;;49.50;3.17;;;;;;;25.01;60.14;99631.66;7312183;19;129551;-37
2023/07/06 06:58:41;;;;;;;36.70;2.90;;;;;;;25.00;60.12;99635.28;7311173;19;129116;-32
2023/07/06 07:01:08;;;;;;;46.87;3.20;;;;;;;24.96;60.54;99628.69;7312816;19;129379;-39
2023/07/06 07:03:34;;;;;;;45.58;3.17;;;;;;;25.00;60.08;99635.28;7311519;19;129438;-37
2023/07/06 07:06:14;;;;;;;26.05;2.55;;;;;;;25.01;59.78;99631.66;7312686;19;129866;-35
2023/07/06 07:08:50;;;;;;;26.27;2.25;;;;;;;25.01;60.23;99631.66;7310910;19;129427;-35
2023/07/06 07:11:20;;;;;;;35.30;2.72;;;;;;;24.99;59.75;99629.19;7310961;19;129145;-37
2023/07/06 07:13:47;;;;;;;56.70;3.90;;;;;;;24.99;60.56;99633.66;7309995;19;129709;-37
2023/07/06 07:16:14;;;;;;;52.17;3.95;;;;;;;24.98;60.18;99629.34;7310615;19;129923;-34
2023/07/06 07:18:39;;;;;;;27.55;2.42;;;;;;;24.97;60.04;99625.09;7309618;19;129053;-36
2023/07/06 07:21:07;;;;;;;41.43;3.00;;;;;;;25.00;60.00;99632.66;7314257;19;129500;-37
2023/07/06 07:23:45;;;;;;;62.63;4.07;;;;;;;25.01;60.58;99636.94;7315366;19;133330;-37
2023/07/06 07:26:13;;;;;;;42.00;3.10;;;;;;;24.98;59.93;99642.50;7319390;19;129245;-38
2023/07/06 07:28:40;;;;;;;42.38;3.47;;;;;;;24.98;60.54;99632.81;7317898;19;129281;-36
2023/07/06 07:31:12;;;;;;;33.40;2.53;;;;;;;25.00;60.11;99630.03;7316400;19;129622;-38
2023/07/06 07:33:41;;;;;;;35.22;2.65;;;;;;;25.00;60.56;99630.03;7316490;19;131940;-33
2023/07/06 07:36:09;;;;;;;58.28;3.92;;;;;;;24.99;60.12;99633.66;7317151;19;129202;-39
2023/07/06 07:38:36;;;;;;;41.95;3.00;;;;;;;24.98;60.19;99622.31;7317236;19;129229;-37
2023/07/06 07:41:03;;;;;;;23.92;2.30;;;;;;;24.99;60.25;99631.81;7317534;19;130012;-40
2023/07/06 07:43:34;;;;;;;34.28;2.58;;;;;;;24.92;60.31;99622.13;7316940;19;129473;-36
2023/07/06 07:46:03;;;;;;;52.35;3.65;;;;;;;24.96;59.75;99631.31;7317492;19;130598;-39
2023/07/06 07:48:32;;;;;;;29.40;2.00;;;;;;;24.98;60.52;99635.44;7318125;19;129060;-35
2023/07/06 07:50:58;;;;;;;80.03;5.10;;;;;;;24.99;59.95;99628.41;7316873;19;130455;-36
2023/07/06 07:53:26;;;;;;;24.60;2.17;;;;;;;24.99;60.23;99636.28;7317700;19;129497;-38
2023/07/06 07:55:56;;;;;;;45.88;3.17;;;;;;;24.95;59.80;99627.06;7318348;19;128954;-38
2023/07/06 07:58:25;;;;;;;56.72;3.63;;;;;;;24.98;59.93;99638.09;7316073;19;128954;-39
2023/07/06 08:00:58;;;;;;;28.52;2.33;;;;;;;24.98;59.81;99634.63;7318390;19;129341;-37
2023/07/06 08:03:25;;;;;;;34.35;2.67;;;;;;;24.99;60.12;99638.91;7318457;19;129636;-38
2023/07/06 08:06:02;;;;;;;36.88;3.00;;;;;;;25.00;60.02;99637.91;7317567;19;128850;-38
2023/07/06 08:08:29;;;;;;;35.25;2.70;;;;;;;24.99;59.77;99644.19;7316051;19;129054;-36
2023/07/06 08:10:54;;;;;;;42.42;3.00;;;;;;;24.87;60.35;99619.97;7317312;19;129073;-39
2023/07/06 08:13:20;;;;;;;34.77;2.63;;;;;;;25.00;60.17;99648.44;7316875;19;129705;-40
2023/07/06 08:15:47;;;;;;;27.20;2.30;;;;;;;24.98;60.17;99638.09;7315345;19;129480;-39
2023/07/06 08:18:13;;;;;;;16.05;1.83;;;;;;;24.99;59.91;99649.44;7315803;19;129119;-39
2023/07/06 08:20:38;;;;;;;58.47;3.83;;;;;;;24.98;60.05;99642.50;7316490;19;129094;-37
2023/07/06 08:23:10;;;;;;;24.33;1.90;;;;;;;25.01;60.34;99652.72;7317171;19;129674;-37
2023/07/06 08:25:40;;;;;;;25.90;2.15;;;;;;;24.97;60.03;99646.13;7316705;19;128984;-36
2023/07/06 08:28:08;;;;;;;28.13;2.30;;;;;;;24.97;60.13;99656.66;7316490;19;129361;-39
2023/07/06 08:30:36;;;;;;;26.20;2.17;;;;;;;24.96;59.86;99644.47;7316574;19;129465;-40
2023/07/06 08:33:02;;;;;;;28.42;2.35;;;;;;;24.96;59.82;99655.00;7314343;19;129329;-36
2023/07/06 08:35:29;;;;;;;25.37;2.10;;;;;;;24.97;60.51;99646.97;7315708;19;128958;-36
2023/07/06 08:37:55;;;;;;;37.13;2.78;;;;;;;24.97;59.95;99646.13;7316182;19;128809;-38
2023/07/06 08:40:23;;;;;;;51.13;3.40;;;;;;;24.98;60.05;99650.41;7314253;19;129578;-36
2023/07/06 08:42:49;;;;;;;33.25;2.47;;;;;;;24.98;60.13;99647.78;7316782;19;131379;-38
2023/07/06 08:45:19;;;;;;;27.10;2.00;;;;;;;24.97;59.82;99652.22;7317073;19;129141;-35
2023/07/06 08:47:46;;;;;;;35.00;2.58;;;;;;;24.97;60.19;99646.97;7315881;19;129481;-35
2023/07/06 08:50:12;;;;;;;26.55;2.20;;;;;;;24.96;60.11;99652.38;7314170;19;129191;-39
2023/07/06 08:52:39;;;;;;;34.95;2.75;;;;;;;24.87;60.13;99640.19;7314762;19;129157;-38
2023/07/06 08:55:11;;;;;;;23.05;2.08;;;;;;;24.91;60.27;99639.69;7316472;19;128831;-39
2023/07/06 08:57:37;;;;;;;23.60;2.03;;;;;;;24.94;59.91;99646.47;7315679;19;129214;-39
2023/07/06 09:00:03;;;;;;;49.80;3.47;;;;;;;24.97;59.72;99651.41;7313441;19;129176;-38
2023/07/06 09:02:31;;;;;;;47.88;3.42;;;;;;;24.96;60.19;99649.72;7315127;19;129496;-39
2023/07/06 09:05:01;;;;;;;43.75;3.45;;;;;;;24.86;60.19;99634.09;7316884;19;128935;-36
2023/07/06 09:07:42;;;;;;;28.30;2.20;;;;;;;24.98;59.97;99653.03;7314990;19;128925;-39
2023/07/06 09:10:17;;;;;;;34.67;2.63;;;;;;;24.86;60.17;99634.09;7312180;19;132644;-35
2023/07/06 09:12:43;;;;;;;50.97;3.55;;;;;;;24.97;60.47;99649.59;7312733;19;129257;-35
2023/07/06 09:15:09;;;;;;;44.50;3.38;;;;;;;24.97;59.61;99651.41;7315967;19;128847;-35
2023/07/06 09:17:44;;;;;;;22.47;2.20;;;;;;;25.00;60.43;99666.84;7314469;19;129564;-36
2023/07/06 09:20:12;;;;;;;54.95;3.60;;;;;;;24.97;60.25;99654.03;7312478;19;129414;-40
2023/07/06 09:22:41;;;;;;;35.88;2.90;;;;;;;24.97;60.42;99643.50;7315567;19;129723;-37
2023/07/06 09:25:13;;;;;;;64.78;3.88;;;;;;;24.97;60.15;99646.13;7313817;19;129129;-38
2023/07/06 09:27:38;;;;;;;35.40;2.65;;;;;;;24.96;60.40;99647.09;7314576;19;129228;-40
2023/07/06 09:30:17;;;;;;;41.73;2.93;;;;;;;24.96;60.64;99644.47;7312536;19;129098;-36
2023/07/06 09:32:44;;;;;;;29.55;2.25;;;;;;;24.96;59.94;99655.81;7313524;19;130324;-37
2023/07/06 09:35:20;;;;;;;61.38;4.00;;;;;;;24.97;60.33;99656.66;7314508;19;128889;-39
2023/07/06 09:37:47;;;;;;;55.45;3.58;;;;;;;24.97;59.80;99646.13;7314120;19;129616;-39
2023/07/06 09:40:14;;;;;;;18.95;1.80;;;;;;;24.95;60.14;99653.34;7312918;19;129605;-36
2023/07/06 09:42:39;;;;;;;34.67;2.47;;;;;;;24.95;59.73;99648.09;7314209;19;130163;-34
2023/07/06 09:45:15;;;;;;;22.00;1.80;;;;;;;24.98;60.16;99648.59;7314979;19;128926;-39
2023/07/06 09:47:47;;;;;;;29.60;2.42;;;;;;;24.96;60.45;99655.00;7314385;19;128897;-36
2023/07/06 09:50:20;;;;;;;52.40;3.30;;;;;;;24.96;60.18;99653.19;7311203;19;131067;-38
2023/07/06 09:52:47;;;;;;;47.45;3.35;;;;;;;24.94;59.95;99657.78;7312686;19;129876;-38
2023/07/06 09:55:29;;;;;;;27.77;2.10;;;;;;;24.97;60.47;99654.03;7315828;19;129859;-39
2023/07/06 09:57:55;;;;;;;26.13;2.00;;;;;;;24.94;60.09;99656.97;7314100;19;129919;-34
2023/07/06 10:00:24;;;;;;;33.17;2.23;;;;;;;24.95;60.36;99663.88;7312181;19;129155;-34
2023/07/06 10:03:08;;;;;;;52.90;3.67;;;;;;;24.97;60.60;99651.41;7313647;19;132090;-38
2023/07/06 10:05:49;;;;;;;61.63;3.67;;;;;;;24.96;60.72;99653.19;7315638;19;129300;-38
2023/07/06 10:08:25;;;;;;;47.25;2.88;;;;;;;24.96;59.89;99652.38;7314663;19;129559;-37
2023/07/06 10:11:25;;;;;;;44.92;3.25;;;;;;;24.98;59.93;99650.41;7313500;19;129008;-37
2023/07/06 10:13:56;;;;;;;39.78;2.55;;;;;;;24.93;59.70;99648.25;7313664;19;130335;-39
2023/07/06 10:16:38;;;;;;;27.92;2.10;;;;;;;24.94;60.62;99646.47;7315000;19;129499;-38
2023/07/06 10:19:11;;;;;;;35.80;2.58;;;;;;;24.94;59.74;99651.72;7312881;19;129257;-32
2023/07/06 10:21:44;;;;;;;33.50;2.55;;;;;;;24.93;59.78;99656.16;7312264;19;129109;-38
2023/07/06 10:24:47;;;;;;;25.02;1.90;;;;;;;24.96;59.75;99649.72;7314679;19;129150;-37
2023/07/06 10:27:28;;;;;;;60.25;4.30;;;;;;;24.96;59.77;99645.31;7314614;19;129586;-39
2023/07/06 10:29:57;;;;;;;35.72;2.70;;;;;;;24.92;60.28;99645.78;7311512;19;128967;-37
2023/07/06 10:32:28;;;;;;;44.20;3.22;;;;;;;24.93;59.76;99644.78;7310784;19;129572;-38
2023/07/06 10:35:19;;;;;;;47.95;3.15;;;;;;;24.97;59.85;99646.13;7313008;19;129235;-36
2023/07/06 10:37:46;;;;;;;48.40;3.28;;;;;;;24.92;59.62;99637.91;7312246;19;128953;-37
2023/07/06 10:40:21;;;;;;;;;;;;;;;25.04;59.78;99647.16;7311876;19;129352;-36
2023/07/06 10:42:51;;;;;;;8.95;1.10;;;;;;;24.94;59.96;99646.47;7314100;19;129454;-36
2023/07/06 10:45:37;;;;;;;40.85;2.72;;;;;;;24.94;60.05;99638.56;7312336;19;129567;-37
2023/07/06 10:48:13;;;;;;;26.63;2.05;;;;;;;24.94;60.24;99636.75;7312897;19;129571;-31
2023/07/06 10:50:45;;;;;;;38.85;2.88;;;;;;;24.93;60.28;99635.09;7312095;19;129240;-36
2023/07/06 10:53:41;;;;;;;39.42;2.75;;;;;;;24.92;59.76;99643.16;7308872;19;129016;-40
2023/07/06 10:56:19;;;;;;;8.48;1.15;;;;;;;24.93;59.60;99644.78;7309990;19;129672;-36
2023/07/06 10:58:57;;;;;;;40.05;2.65;;;;;;;24.94;60.01;99652.53;7311457;19;130000;-39
2023/07/06 11:01:28;;;;;;;;;;;;;;;25.01;59.57;99648.28;7313468;19;129380;-38
2023/07/06 11:03:54;;;;;;;40.22;2.83;;;;;;;24.85;59.52;99631.63;7312505;19;129472;-38
2023/07/06 11:06:58;;;;;;;39.83;2.70;;;;;;;24.98;60.37;99647.78;7312346;19;129373;-37
2023/07/06 11:09:23;;;;;;;43.25;2.95;;;;;;;24.93;60.30;99650.88;7306808;19;129479;-40
2023/07/06 11:11:49;;;;;;;61.97;4.20;;;;;;;24.85;60.17;99634.25;7304801;19;129305;-36
2023/07/06 11:14:36;;;;;;;38.97;2.53;;;;;;;24.93;59.89;99644.78;7309321;19;129164;-36
2023/07/06 11:17:19;;;;;;;40.85;2.92;;;;;;;24.92;60.27;99637.91;7310580;19;131326;-34
2023/07/06 11:19:55;;;;;;;47.75;3.17;;;;;;;24.91;60.58;99641.50;7309171;19;129270;-36
2023/07/06 11:22:22;;;;;;;55.65;3.63;;;;;;;24.91;59.74;99650.22;7310996;19;128935;-34
2023/07/06 11:24:51;;;;;;;57.13;3.88;;;;;;;24.91;60.01;99647.59;7311237;19;129043;-39
2023/07/06 11:27:44;;;;;;;40.88;2.67;;;;;;;24.96;60.34;99644.47;7311281;19;130203;-33
2023/07/06 11:30:15;;;;;;;38.67;2.90;;;;;;;24.92;59.50;99651.06;7309566;19;129161;-35